createdAt,value
2018-08-18T00:00:31.793Z,37.20
2018-08-18T00:02:03.611Z,41.00
2018-08-18T00:03:34.930Z,42.30
2018-08-18T00:05:06.499Z,42.40
2018-08-18T00:06:38.068Z,41.10
2018-08-18T00:08:09.737Z,41.00
2018-08-18T00:09:41.206Z,37.20
2018-08-18T00:11:12.775Z,37.00
2018-08-18T00:12:44.344Z,39.90
2018-08-18T00:14:16.013Z,44.90
2018-08-18T00:15:47.482Z,41.00
2018-08-18T00:17:19.051Z,49.90
2018-08-18T00:18:50.622Z,46.20
2018-08-18T00:20:22.468Z,45.00
2018-08-18T00:21:53.758Z,49.40
2018-08-18T00:23:25.471Z,48.90
2018-08-18T00:24:56.896Z,46.40
2018-08-18T00:26:28.566Z,46.30
2018-08-18T00:28:00.039Z,48.30
2018-08-18T00:29:31.604Z,42.90
2018-08-18T00:31:03.173Z,39.50
2018-08-18T00:32:34.843Z,42.90
2018-08-18T00:34:06.344Z,47.00
2018-08-18T00:35:37.880Z,42.00
2018-08-18T00:37:09.449Z,38.10
2018-08-18T00:38:41.223Z,42.80
2018-08-18T00:40:12.588Z,39.60
2018-08-18T00:41:44.158Z,42.80
2018-08-18T00:43:15.726Z,42.50
2018-08-18T00:44:47.400Z,40.80
2018-08-18T00:46:18.865Z,41.40
2018-08-18T00:47:50.434Z,45.70
2018-08-18T00:49:22.003Z,40.10
2018-08-18T00:50:53.671Z,38.50
2018-08-18T00:52:25.140Z,39.50
2018-08-18T00:53:56.709Z,38.30
2018-08-18T00:55:28.297Z,40.10
2018-08-18T00:57:00.049Z,33.80
2018-08-18T00:58:31.416Z,34.10
2018-08-18T01:00:02.990Z,32.60
2018-08-18T01:01:34.606Z,35.30
2018-08-18T01:03:06.224Z,36.00
2018-08-18T01:04:37.694Z,38.90
2018-08-18T01:06:09.263Z,38.10
2018-08-18T01:07:40.832Z,32.60
2018-08-18T01:09:12.523Z,36.10
2018-08-18T01:10:43.969Z,36.10
2018-08-18T01:12:15.587Z,41.80
2018-08-18T01:13:47.271Z,36.60
2018-08-18T01:15:18.928Z,40.00
2018-08-18T01:16:50.273Z,36.90
2018-08-18T01:18:21.842Z,40.10
2018-08-18T01:19:53.388Z,36.30
2018-08-18T01:21:25.208Z,33.70
2018-08-18T01:22:56.521Z,39.30
2018-08-18T01:24:28.090Z,40.60
2018-08-18T01:25:59.661Z,42.30
2018-08-18T01:27:31.447Z,40.10
2018-08-18T01:29:02.798Z,42.40
2018-08-18T01:30:34.372Z,43.20
2018-08-18T01:32:05.936Z,45.30
2018-08-18T01:33:37.761Z,41.60
2018-08-18T01:35:09.079Z,43.20
2018-08-18T01:36:40.645Z,40.60
2018-08-18T01:38:12.213Z,48.50
2018-08-18T01:39:43.883Z,45.20
2018-08-18T01:41:15.352Z,45.60
2018-08-18T01:42:46.929Z,56.60
2018-08-18T01:44:18.492Z,43.60
2018-08-18T01:45:50.163Z,45.00
2018-08-18T01:47:21.630Z,45.70
2018-08-18T01:48:53.197Z,39.80
2018-08-18T01:50:24.767Z,42.60
2018-08-18T01:51:56.435Z,38.40
2018-08-18T01:53:27.904Z,34.40
2018-08-18T01:54:59.473Z,30.70
2018-08-18T01:56:31.042Z,35.20
2018-08-18T01:58:02.712Z,29.30
2018-08-18T01:59:34.180Z,34.30
2018-08-18T02:01:05.750Z,32.70
2018-08-18T02:02:37.318Z,32.60
2018-08-18T02:04:09.136Z,34.90
2018-08-18T02:05:40.457Z,33.50
2018-08-18T02:07:12.024Z,31.20
2018-08-18T02:08:43.594Z,32.10
2018-08-18T02:10:15.263Z,38.10
2018-08-18T02:11:46.756Z,33.40
2018-08-18T02:13:18.301Z,35.30
2018-08-18T02:14:49.868Z,34.80
2018-08-18T02:16:21.537Z,33.40
2018-08-18T02:17:53.006Z,29.60
2018-08-18T02:19:24.577Z,24.90
2018-08-18T02:20:56.145Z,34.90
2018-08-18T02:22:27.968Z,34.50
2018-08-18T02:23:59.282Z,34.30
2018-08-18T02:25:30.850Z,29.20
2018-08-18T02:27:02.419Z,30.10
2018-08-18T02:28:34.089Z,29.70
2018-08-18T02:30:05.558Z,30.10
2018-08-18T02:31:37.126Z,30.00
2018-08-18T02:33:08.695Z,29.00
2018-08-18T02:34:40.368Z,29.60
2018-08-18T02:36:11.882Z,27.10
2018-08-18T02:39:14.972Z,27.70
2018-08-18T02:40:46.791Z,34.20
2018-08-18T02:42:18.110Z,39.10
2018-08-18T02:43:49.679Z,35.20
2018-08-18T02:45:21.248Z,37.10
2018-08-18T02:46:52.919Z,40.40
2018-08-18T02:48:24.386Z,35.50
2018-08-18T02:49:55.955Z,37.30
2018-08-18T02:51:27.525Z,35.10
2018-08-18T02:52:59.262Z,39.60
2018-08-18T02:54:30.663Z,41.00
2018-08-18T02:56:02.232Z,41.40
2018-08-18T02:57:33.801Z,43.60
2018-08-18T02:59:05.572Z,43.90
2018-08-18T03:00:36.939Z,39.20
2018-08-18T03:02:08.506Z,40.90
2018-08-18T03:03:40.098Z,37.50
2018-08-18T03:05:11.745Z,27.20
2018-08-18T03:06:43.219Z,34.00
2018-08-18T03:08:14.807Z,28.70
2018-08-18T03:09:46.353Z,24.90
2018-08-18T03:11:18.021Z,28.00
2018-08-18T03:12:49.489Z,31.00
2018-08-18T03:14:21.058Z,27.90
2018-08-18T03:15:52.632Z,28.40
2018-08-18T03:17:24.345Z,32.60
2018-08-18T03:18:55.764Z,34.10
2018-08-18T03:20:27.334Z,27.90
2018-08-18T03:21:58.902Z,34.30
2018-08-18T03:23:30.571Z,38.10
2018-08-18T03:25:02.039Z,33.70
2018-08-18T03:26:33.607Z,33.80
2018-08-18T03:28:05.176Z,35.00
2018-08-18T03:29:36.846Z,34.80
2018-08-18T03:31:08.313Z,30.20
2018-08-18T03:32:39.886Z,32.40
2018-08-18T03:34:11.454Z,33.70
2018-08-18T03:35:43.119Z,30.50
2018-08-18T03:37:14.590Z,33.50
2018-08-18T03:38:46.159Z,30.00
2018-08-18T03:40:17.726Z,30.80
2018-08-18T03:41:49.549Z,30.40
2018-08-18T03:43:20.864Z,31.10
2018-08-18T03:44:52.431Z,35.30
2018-08-18T03:46:24.007Z,31.20
2018-08-18T03:47:55.672Z,30.50
2018-08-18T03:49:33.200Z,31.30
2018-08-18T03:50:58.707Z,32.50
2018-08-18T03:52:30.366Z,30.40
2018-08-18T03:54:02.126Z,32.70
2018-08-18T03:55:33.416Z,39.20
2018-08-18T03:57:04.982Z,31.10
2018-08-18T03:58:36.566Z,33.90
2018-08-18T04:00:08.219Z,25.30
2018-08-18T04:01:39.760Z,34.40
2018-08-18T04:03:11.258Z,27.80
2018-08-18T04:04:42.825Z,26.60
2018-08-18T04:06:14.495Z,26.10
2018-08-18T04:07:45.998Z,34.40
2018-08-18T04:09:17.636Z,32.30
2018-08-18T04:10:49.143Z,31.90
2018-08-18T04:12:21.020Z,29.20
2018-08-18T04:13:52.238Z,30.20
2018-08-18T04:15:23.806Z,32.20
2018-08-18T04:16:55.376Z,32.30
2018-08-18T04:18:27.044Z,31.30
2018-08-18T04:19:58.513Z,33.70
2018-08-18T04:21:30.082Z,32.30
2018-08-18T04:23:01.666Z,35.70
2018-08-18T04:24:33.319Z,33.50
2018-08-18T04:26:04.788Z,35.00
2018-08-18T04:27:36.359Z,30.70
2018-08-18T04:29:07.926Z,35.40
2018-08-18T04:30:39.695Z,33.00
2018-08-18T04:32:11.065Z,35.40
2018-08-18T04:33:42.633Z,39.60
2018-08-18T04:35:14.251Z,38.70
2018-08-18T04:36:45.771Z,42.10
2018-08-18T04:38:17.341Z,38.50
2018-08-18T04:39:48.910Z,50.00
2018-08-18T04:41:20.501Z,43.00
2018-08-18T04:42:52.299Z,38.10
2018-08-18T04:44:23.617Z,56.80
2018-08-18T04:45:55.186Z,52.40
2018-08-18T04:47:26.756Z,58.30
2018-08-18T04:48:58.525Z,41.80
2018-08-18T04:50:29.963Z,51.20
2018-08-18T04:52:01.463Z,54.50
2018-08-18T04:53:33.032Z,49.00
2018-08-18T04:55:04.702Z,67.60
2018-08-18T04:56:36.170Z,63.40
2018-08-18T04:58:07.739Z,59.90
2018-08-18T04:59:39.309Z,65.80
2018-08-18T05:01:10.978Z,61.80
2018-08-18T05:02:42.449Z,61.10
2018-08-18T05:04:14.015Z,63.30
2018-08-18T05:05:45.584Z,60.70
2018-08-18T05:07:17.406Z,60.40
2018-08-18T05:08:48.728Z,59.60
2018-08-18T05:10:20.292Z,66.00
2018-08-18T05:11:51.861Z,61.20
2018-08-18T05:13:23.680Z,59.30
2018-08-18T05:14:55.000Z,66.10
2018-08-18T05:16:26.568Z,56.70
2018-08-18T05:17:58.140Z,55.00
2018-08-18T05:19:29.808Z,49.60
2018-08-18T05:21:01.276Z,49.30
2018-08-18T05:22:32.845Z,50.90
2018-08-18T05:24:04.415Z,54.20
2018-08-18T05:25:36.634Z,50.40
2018-08-18T05:27:07.552Z,45.90
2018-08-18T05:28:39.127Z,46.00
2018-08-18T05:30:10.691Z,42.30
2018-08-18T05:31:42.359Z,49.90
2018-08-18T05:33:13.828Z,45.50
2018-08-18T05:34:45.398Z,36.10
2018-08-18T05:36:16.966Z,42.10
2018-08-18T05:37:48.635Z,42.60
2018-08-18T05:39:20.104Z,42.20
2018-08-18T05:40:51.673Z,39.40
2018-08-18T05:42:23.241Z,44.90
2018-08-18T05:43:55.211Z,40.30
2018-08-18T05:45:26.379Z,44.30
2018-08-18T05:46:57.948Z,42.30
2018-08-18T05:48:29.516Z,41.90
2018-08-18T05:50:01.086Z,45.40
2018-08-18T05:51:32.655Z,44.30
2018-08-18T05:53:04.224Z,41.40
2018-08-18T05:54:35.792Z,40.90
2018-08-18T05:56:07.461Z,41.60
2018-08-18T05:57:38.930Z,34.90
2018-08-18T05:59:10.500Z,43.60
2018-08-18T06:00:42.069Z,46.70
2018-08-18T06:02:13.838Z,46.80
2018-08-18T06:03:45.206Z,46.70
2018-08-18T06:05:16.775Z,64.70
2018-08-18T06:06:48.344Z,55.10
2018-08-18T06:08:20.014Z,55.10
2018-08-18T06:09:51.481Z,58.40
2018-08-18T06:11:23.050Z,56.00
2018-08-18T06:12:54.620Z,58.70
2018-08-18T06:14:26.442Z,61.40
2018-08-18T06:15:57.758Z,54.10
2018-08-18T06:17:29.327Z,52.50
2018-08-18T06:19:00.897Z,58.40
2018-08-18T06:20:32.566Z,57.90
2018-08-18T06:22:04.033Z,61.90
2018-08-18T06:23:35.603Z,61.20
2018-08-18T06:25:07.171Z,50.80
2018-08-18T06:26:38.745Z,61.50
2018-08-18T06:28:10.309Z,51.60
2018-08-18T06:29:41.878Z,56.00
2018-08-18T06:31:13.447Z,50.40
2018-08-18T06:32:45.115Z,54.40
2018-08-18T06:34:16.584Z,56.60
2018-08-18T06:35:48.152Z,55.60
2018-08-18T06:37:19.721Z,45.90
2018-08-18T06:38:51.490Z,52.20
2018-08-18T06:40:22.858Z,49.50
2018-08-18T06:41:54.509Z,48.80
2018-08-18T06:43:25.995Z,50.40
2018-08-18T06:44:57.815Z,60.20
2018-08-18T06:46:29.132Z,46.00
2018-08-18T06:48:00.701Z,53.40
2018-08-18T06:49:32.269Z,50.50
2018-08-18T06:51:03.938Z,48.20
2018-08-18T06:52:35.407Z,48.40
2018-08-18T06:54:06.975Z,56.80
2018-08-18T06:55:38.543Z,54.50
2018-08-18T06:57:10.847Z,65.60
2018-08-18T06:58:41.680Z,58.60
2018-08-18T07:00:13.248Z,58.60
2018-08-18T07:01:44.817Z,63.30
2018-08-18T07:03:16.485Z,47.20
2018-08-18T07:04:47.953Z,54.40
2018-08-18T07:06:19.522Z,51.80
2018-08-18T07:07:51.090Z,49.10
2018-08-18T07:09:22.759Z,55.40
2018-08-18T07:10:54.232Z,54.30
2018-08-18T07:12:25.795Z,55.50
2018-08-18T07:13:57.363Z,54.00
2018-08-18T07:15:29.282Z,53.80
2018-08-18T07:17:00.500Z,51.70
2018-08-18T07:18:32.068Z,48.90
2018-08-18T07:20:03.637Z,42.60
2018-08-18T07:21:35.305Z,55.00
2018-08-18T07:23:06.774Z,57.50
2018-08-18T07:24:38.348Z,57.40
2018-08-18T07:26:09.909Z,48.70
2018-08-18T07:27:41.478Z,57.90
2018-08-18T07:29:13.062Z,66.60
2018-08-18T07:30:44.614Z,62.40
2018-08-18T07:32:16.185Z,80.70
2018-08-18T07:33:47.851Z,66.80
2018-08-18T07:35:19.319Z,63.80
2018-08-18T07:36:50.887Z,58.20
2018-08-18T07:38:22.457Z,63.70
2018-08-18T07:39:54.124Z,53.60
2018-08-18T07:41:25.591Z,58.90
2018-08-18T07:42:57.159Z,74.10
2018-08-18T07:44:28.727Z,66.50
2018-08-18T07:46:00.546Z,69.00
2018-08-18T07:47:31.865Z,62.70
2018-08-18T07:49:03.439Z,66.90
2018-08-18T07:50:35.001Z,63.10
2018-08-18T07:52:06.668Z,60.80
2018-08-18T07:53:38.234Z,62.60
2018-08-18T07:55:09.703Z,57.50
2018-08-18T07:56:41.271Z,47.00
2018-08-18T07:58:12.840Z,58.80
2018-08-18T07:59:44.474Z,49.50
2018-08-18T08:01:15.975Z,49.90
2018-08-18T08:02:47.543Z,46.10
2018-08-18T08:04:19.216Z,42.90
2018-08-18T08:05:50.801Z,42.50
2018-08-18T08:07:22.247Z,44.30
2018-08-18T08:08:53.815Z,45.90
2018-08-18T08:10:25.633Z,41.90
2018-08-18T08:11:56.958Z,41.60
2018-08-18T08:13:28.519Z,36.00
2018-08-18T08:15:00.088Z,38.10
2018-08-18T08:16:31.905Z,33.00
2018-08-18T08:18:03.233Z,34.50
2018-08-18T08:19:34.790Z,35.10
2018-08-18T08:21:06.362Z,40.80
2018-08-18T08:22:37.926Z,37.00
2018-08-18T08:24:09.494Z,29.40
2018-08-18T08:25:41.062Z,35.20
2018-08-18T08:27:12.631Z,33.90
2018-08-18T08:28:45.149Z,37.60
2018-08-18T08:30:15.765Z,36.80
2018-08-18T08:31:47.333Z,38.70
2018-08-18T08:33:18.900Z,37.00
2018-08-18T08:34:50.571Z,36.00
2018-08-18T08:36:22.038Z,35.40
2018-08-18T08:37:53.608Z,35.70
2018-08-18T08:39:25.173Z,29.60
2018-08-18T08:40:56.840Z,33.10
2018-08-18T08:42:28.309Z,35.90
2018-08-18T08:43:59.876Z,45.30
2018-08-18T08:45:31.446Z,37.10
2018-08-18T08:47:03.414Z,44.90
2018-08-18T08:48:34.581Z,44.30
2018-08-18T08:50:06.160Z,42.70
2018-08-18T08:51:37.714Z,41.00
2018-08-18T08:53:09.283Z,49.90
2018-08-18T08:54:40.851Z,45.70
2018-08-18T08:56:12.422Z,44.50
2018-08-18T08:57:43.988Z,36.40
2018-08-18T08:59:15.555Z,38.40
2018-08-18T09:00:47.134Z,37.00
2018-08-18T09:02:18.691Z,34.50
2018-08-18T09:03:50.258Z,40.00
2018-08-18T09:05:22.029Z,36.10
2018-08-18T09:06:53.394Z,32.50
2018-08-18T09:08:24.962Z,36.70
2018-08-18T09:09:56.532Z,32.60
2018-08-18T09:11:28.099Z,38.40
2018-08-18T09:12:59.698Z,38.70
2018-08-18T09:14:31.233Z,41.90
2018-08-18T09:16:02.802Z,42.80
2018-08-18T09:17:34.622Z,43.40
2018-08-18T09:19:05.937Z,33.60
2018-08-18T09:20:37.506Z,34.40
2018-08-18T09:22:09.077Z,40.00
2018-08-18T09:23:40.792Z,36.00
2018-08-18T09:25:12.262Z,40.00
2018-08-18T09:26:43.782Z,37.70
2018-08-18T09:28:15.394Z,37.70
2018-08-18T09:29:46.914Z,37.40
2018-08-18T09:31:18.482Z,30.80
2018-08-18T09:32:50.117Z,26.90
2018-08-18T09:34:21.688Z,32.50
2018-08-18T09:35:53.328Z,34.40
2018-08-18T09:37:24.766Z,38.40
2018-08-18T09:38:56.325Z,35.70
2018-08-18T09:40:27.933Z,32.20
2018-08-18T09:42:00.015Z,36.90
2018-08-18T09:43:31.029Z,31.80
2018-08-18T09:45:02.599Z,36.30
2018-08-18T09:46:34.168Z,35.10
2018-08-18T09:48:05.839Z,38.20
2018-08-18T09:49:37.610Z,38.60
2018-08-18T09:51:08.872Z,29.20
2018-08-18T09:52:40.443Z,35.00
2018-08-18T09:54:12.112Z,32.00
2018-08-18T09:55:43.582Z,27.70
2018-08-18T09:57:15.686Z,33.40
2018-08-18T09:58:46.720Z,33.80
2018-08-18T10:00:18.540Z,31.80
2018-08-18T10:01:49.860Z,38.90
2018-08-18T10:04:53.001Z,31.40
2018-08-18T10:06:24.679Z,35.90
2018-08-18T10:09:27.917Z,41.00
2018-08-18T10:10:59.285Z,33.70
2018-08-18T10:12:30.956Z,34.80
2018-08-18T10:14:02.428Z,34.70
2018-08-18T10:15:33.997Z,34.50
2018-08-18T10:17:05.568Z,37.10
2018-08-18T10:18:37.341Z,35.30
2018-08-18T10:20:08.713Z,36.00
2018-08-18T10:21:40.283Z,29.60
2018-08-18T10:23:11.856Z,28.90
2018-08-18T10:26:15.636Z,25.90
2018-08-18T10:27:46.574Z,26.90
2018-08-18T10:29:18.146Z,24.40
2018-08-18T10:32:21.592Z,22.30
2018-08-18T10:33:52.863Z,20.10
2018-08-18T10:35:24.435Z,21.70
2018-08-18T10:36:56.315Z,22.20
2018-08-18T10:38:27.791Z,18.70
2018-08-18T10:40:00.303Z,15.40
2018-08-18T10:41:31.031Z,19.70
2018-08-18T10:43:02.301Z,17.40
2018-08-18T10:44:33.875Z,15.00
2018-08-18T10:46:05.447Z,17.80
2018-08-18T10:47:37.021Z,20.30
2018-08-18T10:49:08.600Z,12.90
2018-08-18T10:50:40.270Z,14.20
2018-08-18T10:52:11.945Z,13.70
2018-08-18T10:53:43.316Z,19.30
2018-08-18T10:55:14.891Z,15.30
2018-08-18T10:56:47.023Z,16.80
2018-08-18T10:58:18.240Z,16.90
2018-08-18T10:59:49.610Z,14.80
2018-08-18T11:01:21.184Z,16.30
2018-08-18T11:02:52.860Z,18.90
2018-08-18T11:04:24.333Z,17.40
2018-08-18T11:07:27.482Z,15.90
2018-08-18T11:08:59.159Z,15.20
2018-08-18T11:10:31.189Z,16.40
2018-08-18T11:12:02.206Z,15.40
2018-08-18T11:13:34.718Z,15.40
2018-08-18T11:15:06.089Z,18.50
2018-08-18T11:16:36.925Z,16.70
2018-08-18T11:18:08.504Z,19.50
2018-08-18T11:21:11.945Z,20.20
2018-08-18T11:22:43.215Z,21.70
2018-08-18T11:24:14.788Z,19.40
2018-08-18T11:25:46.898Z,18.60
2018-08-18T11:27:18.041Z,24.80
2018-08-18T11:28:49.717Z,21.40
2018-08-18T11:30:21.279Z,28.10
2018-08-18T11:33:24.771Z,26.00
2018-08-18T11:34:56.330Z,28.40
2018-08-18T11:37:58.963Z,22.80
2018-08-18T11:39:30.603Z,20.90
2018-08-18T11:41:02.078Z,25.70
2018-08-18T11:42:33.949Z,20.20
2018-08-18T11:44:05.217Z,22.10
2018-08-18T11:45:36.891Z,23.50
2018-08-18T11:47:08.756Z,25.70
2018-08-18T11:50:11.546Z,20.50
2018-08-18T11:51:43.379Z,25.50
2018-08-18T11:53:14.649Z,21.80
2018-08-18T11:54:46.223Z,21.90
2018-08-18T11:56:18.017Z,22.80
2018-08-18T11:57:49.765Z,24.00
2018-08-18T12:00:52.923Z,22.60
2018-08-18T12:02:24.138Z,19.20
2018-08-18T12:03:55.752Z,18.10
2018-08-18T12:05:27.237Z,23.00
2018-08-18T12:06:59.206Z,17.20
2018-08-18T12:08:30.384Z,17.90
2018-08-18T12:10:02.147Z,18.50
2018-08-18T12:11:33.589Z,21.80
2018-08-18T12:14:36.709Z,17.40
2018-08-18T12:16:08.610Z,18.20
2018-08-18T12:17:40.006Z,16.90
2018-08-18T12:20:42.962Z,16.30
2018-08-18T12:22:14.622Z,17.90
2018-08-18T12:23:46.207Z,17.90
2018-08-18T12:25:18.322Z,17.50
2018-08-18T12:26:49.526Z,14.70
2018-08-18T12:28:22.108Z,15.10
2018-08-18T12:29:52.869Z,15.00
2018-08-18T12:32:55.534Z,18.40
2018-08-18T12:34:27.434Z,17.00
2018-08-18T12:35:58.798Z,16.90
2018-08-18T12:37:30.402Z,15.80
2018-08-18T12:40:33.631Z,14.80
2018-08-18T12:42:05.512Z,14.50
2018-08-18T12:43:36.696Z,15.90
2018-08-18T12:45:09.118Z,14.90
2018-08-18T12:46:39.948Z,18.60
2018-08-18T12:48:11.602Z,14.30
2018-08-18T12:49:43.248Z,18.70
2018-08-18T12:51:15.025Z,15.80
2018-08-18T12:52:47.141Z,14.30
2018-08-18T12:54:18.218Z,13.00
2018-08-18T12:55:49.417Z,15.40
2018-08-18T12:57:21.280Z,12.90
2018-08-18T12:58:52.473Z,13.80
2018-08-18T13:00:25.254Z,12.80
2018-08-18T13:01:55.776Z,12.60
2018-08-18T13:03:27.198Z,15.10
2018-08-18T13:04:58.897Z,12.20
2018-08-18T13:08:03.246Z,14.30
2018-08-18T13:09:33.805Z,15.40
2018-08-18T13:11:05.275Z,16.10
2018-08-18T13:15:40.429Z,14.70
2018-08-18T13:17:11.608Z,14.10
2018-08-18T13:20:15.559Z,12.70
2018-08-18T13:21:46.172Z,13.20
2018-08-18T13:23:17.950Z,12.20
2018-08-18T13:24:49.609Z,14.70
2018-08-18T13:26:22.755Z,12.60
2018-08-18T13:29:24.669Z,16.60
2018-08-18T13:30:56.002Z,16.40
2018-08-18T13:32:27.223Z,16.70
2018-08-18T13:33:59.692Z,13.70
2018-08-18T13:35:31.271Z,17.00
2018-08-18T13:40:05.042Z,12.70
2018-08-18T13:41:36.795Z,9.00
2018-08-18T13:43:09.693Z,12.40
2018-08-18T13:46:13.065Z,12.00
2018-08-18T13:47:43.053Z,10.90
2018-08-18T13:49:16.359Z,13.90
2018-08-18T13:50:46.931Z,12.20
2018-08-18T13:52:17.779Z,12.20
2018-08-18T13:53:49.351Z,12.20
2018-08-18T13:55:20.740Z,13.50
2018-08-18T13:56:52.479Z,13.80
2018-08-18T13:58:23.797Z,10.40
2018-08-18T13:59:57.174Z,10.20
2018-08-18T14:01:27.012Z,11.80
2018-08-18T14:02:58.531Z,12.40
2018-08-18T14:04:30.409Z,11.10
2018-08-18T14:06:01.900Z,13.60
2018-08-18T14:07:33.399Z,12.40
2018-08-18T14:10:36.772Z,14.60
2018-08-18T14:12:08.415Z,12.40
2018-08-18T14:13:40.216Z,11.50
2018-08-18T14:15:11.462Z,11.10
2018-08-18T14:16:43.040Z,11.00
2018-08-18T14:18:14.564Z,9.30
2018-08-18T14:19:45.947Z,9.70
2018-08-18T14:21:17.546Z,11.00
2018-08-18T14:22:49.144Z,8.80
2018-08-18T14:24:21.111Z,10.00
2018-08-18T14:25:52.656Z,10.00
2018-08-18T14:27:24.080Z,9.80
2018-08-18T14:28:55.617Z,9.00
2018-08-18T14:30:27.078Z,12.90
2018-08-18T14:31:59.210Z,8.70
2018-08-18T14:33:31.749Z,8.70
2018-08-18T14:35:01.895Z,9.40
2018-08-18T14:36:35.330Z,9.20
2018-08-18T14:38:04.972Z,9.20
2018-08-18T14:39:36.545Z,5.00
2018-08-18T14:41:08.607Z,4.80
2018-08-18T14:42:40.324Z,4.90
2018-08-18T14:44:11.493Z,5.80
2018-08-18T14:45:43.268Z,5.30
2018-08-18T14:47:15.053Z,5.70
2018-08-18T14:50:17.603Z,5.40
2018-08-18T14:51:49.067Z,4.90
2018-08-18T14:53:20.756Z,5.50
2018-08-18T14:54:52.531Z,6.50
2018-08-18T14:56:24.679Z,5.30
2018-08-18T14:57:55.533Z,5.20
2018-08-18T14:59:26.939Z,4.80
2018-08-18T15:00:58.828Z,6.30
2018-08-18T15:02:30.280Z,6.50
2018-08-18T15:04:01.916Z,5.70
2018-08-18T15:05:33.394Z,5.40
2018-08-18T15:07:04.845Z,5.10
2018-08-18T15:08:36.712Z,6.00
2018-08-18T15:10:08.284Z,4.40
2018-08-18T15:11:40.133Z,4.20
2018-08-18T15:13:11.136Z,3.60
2018-08-18T15:14:43.078Z,5.00
2018-08-18T15:16:14.563Z,3.80
2018-08-18T15:17:45.889Z,4.40
2018-08-18T15:19:17.459Z,3.50
2018-08-18T15:20:49.132Z,3.90
2018-08-18T15:23:52.245Z,5.00
2018-08-18T15:25:24.177Z,4.60
2018-08-18T15:26:55.540Z,5.90
2018-08-18T15:28:27.895Z,3.70
2018-08-18T15:33:02.572Z,4.30
2018-08-18T15:34:35.293Z,3.40
2018-08-18T15:36:05.259Z,4.20
2018-08-18T15:37:36.408Z,3.80
2018-08-18T15:39:08.162Z,3.30
2018-08-18T15:42:11.149Z,3.70
2018-08-18T15:43:44.198Z,3.70
2018-08-18T15:45:14.446Z,3.10
2018-08-18T15:46:45.878Z,3.70
2018-08-18T15:48:17.458Z,3.80
2018-08-18T15:49:49.239Z,5.30
2018-08-18T15:52:53.047Z,3.50
2018-08-18T15:55:55.351Z,3.60
2018-08-18T15:57:26.975Z,3.40
2018-08-18T16:00:30.188Z,3.70
2018-08-18T16:02:01.676Z,4.50
2018-08-18T16:03:33.783Z,3.20
2018-08-18T16:05:04.825Z,3.90
2018-08-18T16:08:08.235Z,4.30
2018-08-18T16:09:39.594Z,3.60
2018-08-18T16:11:11.143Z,3.30
2018-08-18T16:12:43.228Z,4.60
2018-08-18T16:14:14.607Z,4.10
2018-08-18T16:15:47.299Z,3.80
2018-08-18T16:18:49.105Z,4.60
2018-08-18T16:21:52.323Z,3.50
2018-08-18T16:24:55.371Z,4.70
2018-08-18T16:26:26.951Z,4.90
2018-08-18T16:27:58.733Z,6.60
2018-08-18T16:31:01.827Z,6.90
2018-08-18T16:32:33.284Z,9.30
2018-08-18T16:35:36.850Z,6.30
2018-08-18T16:38:39.616Z,8.00
2018-08-18T16:40:11.200Z,6.00
2018-08-18T16:41:43.105Z,5.90
2018-08-18T16:43:14.466Z,6.50
2018-08-18T16:44:46.312Z,6.90
2018-08-18T16:46:17.541Z,6.90
2018-08-18T16:49:21.587Z,5.70
2018-08-18T16:50:52.603Z,6.30
2018-08-18T16:52:23.881Z,6.10
2018-08-18T16:58:33.469Z,7.50
2018-08-18T17:00:02.311Z,7.20
2018-08-18T17:01:33.400Z,7.10
2018-08-18T17:03:08.005Z,6.60
2018-08-18T17:04:37.008Z,7.30
2018-08-18T17:06:08.443Z,7.30
2018-08-18T17:07:39.926Z,7.70
2018-08-18T17:09:11.724Z,7.00
2018-08-18T17:10:43.601Z,7.60
2018-08-18T17:12:15.332Z,7.00
2018-08-18T17:13:47.050Z,7.90
2018-08-18T17:15:18.383Z,7.00
2018-08-18T17:16:49.691Z,7.10
2018-08-18T17:18:21.351Z,7.40
2018-08-18T17:19:53.532Z,8.60
2018-08-18T17:21:24.872Z,8.70
2018-08-18T17:22:56.616Z,8.00
2018-08-18T17:24:28.931Z,11.10
2018-08-18T17:25:59.458Z,8.60
2018-08-18T17:27:31.084Z,8.30
2018-08-18T17:29:02.540Z,9.50
2018-08-18T17:30:34.067Z,8.70
2018-08-18T17:32:06.338Z,8.00
2018-08-18T17:33:38.573Z,7.50
2018-08-18T17:35:09.234Z,8.10
2018-08-18T17:36:40.395Z,8.30
2018-08-18T17:38:11.993Z,8.00
2018-08-18T17:39:43.848Z,7.80
2018-08-18T17:42:47.175Z,9.10
2018-08-18T17:44:17.760Z,7.40
2018-08-18T17:45:50.840Z,8.50
2018-08-18T17:47:22.675Z,7.70
2018-08-18T17:50:24.929Z,6.70
2018-08-18T17:51:57.223Z,8.20
2018-08-18T17:53:28.261Z,7.30
2018-08-18T17:54:59.073Z,7.10
2018-08-18T17:56:31.222Z,7.60
2018-08-18T17:58:02.335Z,6.50
2018-08-18T17:59:33.882Z,7.00
2018-08-18T18:02:37.101Z,7.30
2018-08-18T18:04:08.516Z,7.40
2018-08-18T18:05:40.734Z,6.20
2018-08-18T18:07:11.733Z,8.10
2018-08-18T18:08:44.023Z,7.60
2018-08-18T18:10:15.317Z,7.80
2018-08-18T18:11:46.783Z,10.60
2018-08-18T18:13:18.803Z,8.00
2018-08-18T18:14:50.087Z,9.30
2018-08-18T18:16:21.939Z,8.20
2018-08-18T18:17:53.549Z,8.80
2018-08-18T18:19:26.302Z,8.00
2018-08-18T18:20:56.966Z,7.30
2018-08-18T18:22:28.116Z,7.10
2018-08-18T18:23:58.976Z,6.80
2018-08-18T18:25:30.620Z,8.90
2018-08-18T18:27:02.450Z,7.80
2018-08-18T18:28:33.587Z,8.80
2018-08-18T18:30:05.177Z,8.90
2018-08-18T18:31:36.850Z,8.40
2018-08-18T18:33:09.146Z,9.30
2018-08-18T18:34:40.217Z,10.80
2018-08-18T18:37:43.075Z,9.00
2018-08-18T18:39:14.907Z,8.30
2018-08-18T18:40:46.443Z,10.30
2018-08-18T18:42:18.127Z,8.60
2018-08-18T18:43:49.399Z,7.60
2018-08-18T18:45:21.081Z,7.40
2018-08-18T18:46:52.561Z,9.30
2018-08-18T18:49:56.027Z,7.40
2018-08-18T18:52:59.289Z,9.10
2018-08-18T18:54:30.550Z,9.00
2018-08-18T18:56:02.703Z,10.80
2018-08-18T18:59:05.711Z,10.00
2018-08-18T19:02:08.873Z,11.10
2018-08-18T19:05:12.060Z,9.70
2018-08-18T19:06:43.273Z,10.70
2018-08-18T19:08:15.143Z,9.80
2018-08-18T19:09:47.235Z,12.20
2018-08-18T19:11:18.054Z,10.20
2018-08-18T19:12:49.629Z,8.80
2018-08-18T19:15:53.033Z,9.80
2018-08-18T19:18:56.287Z,12.50
2018-08-18T19:20:27.522Z,13.30
2018-08-18T19:21:59.087Z,13.00
2018-08-18T19:23:30.497Z,12.00
2018-08-18T19:25:02.426Z,12.90
2018-08-18T19:26:34.337Z,13.50
2018-08-18T19:28:05.604Z,12.90
2018-08-18T19:29:37.185Z,15.40
2018-08-18T19:31:08.529Z,15.30
2018-08-18T19:32:40.810Z,15.10
2018-08-18T19:34:12.522Z,16.60
2018-08-18T19:35:43.234Z,15.00
2018-08-18T19:37:15.285Z,12.80
2018-08-18T19:38:46.480Z,12.20
2018-08-18T19:40:17.891Z,14.30
2018-08-18T19:41:50.298Z,15.40
2018-08-18T19:43:23.045Z,12.10
2018-08-18T19:44:54.055Z,12.90
2018-08-18T19:46:25.254Z,13.80
2018-08-18T19:47:55.868Z,13.80
2018-08-18T19:49:27.575Z,17.90
2018-08-18T19:51:00.095Z,15.80
2018-08-18T19:52:30.824Z,14.80
2018-08-18T19:54:02.649Z,14.40
2018-08-18T19:55:34.267Z,13.70
2018-08-18T19:58:36.715Z,13.50
2018-08-18T20:00:08.597Z,15.00
2018-08-18T20:03:11.640Z,13.80
2018-08-18T20:06:15.128Z,15.40
2018-08-18T20:07:46.486Z,14.40
2018-08-18T20:09:17.926Z,15.10
2018-08-18T20:10:49.455Z,19.70
2018-08-18T20:12:20.927Z,17.70
2018-08-18T20:13:52.516Z,21.70
2018-08-18T20:15:24.282Z,19.80
2018-08-18T20:16:55.718Z,19.60
2018-08-18T20:18:27.630Z,23.60
2018-08-18T20:19:59.502Z,18.70
2018-08-18T20:21:30.663Z,17.50
2018-08-18T20:24:33.675Z,19.10
2018-08-18T20:26:05.698Z,17.70
2018-08-18T20:27:38.244Z,17.70
2018-08-18T20:29:08.287Z,14.70
2018-08-18T20:32:11.327Z,23.90
2018-08-18T20:33:44.006Z,20.50
2018-08-18T20:35:14.822Z,21.10
2018-08-18T20:36:46.358Z,20.00
2018-08-18T20:38:17.814Z,20.50
2018-08-18T20:39:49.490Z,19.30
2018-08-18T20:41:20.756Z,20.60
2018-08-18T20:42:52.328Z,18.40
2018-08-18T20:44:24.105Z,18.90
2018-08-18T20:45:55.621Z,19.10
2018-08-18T20:47:27.044Z,18.50
2018-08-18T20:48:58.686Z,17.70
2018-08-18T20:50:30.186Z,19.70
2018-08-18T20:52:02.008Z,19.20
2018-08-18T20:53:33.389Z,17.80
2018-08-18T20:55:04.903Z,19.80
2018-08-18T20:56:36.472Z,19.10
2018-08-18T20:58:08.143Z,19.40
2018-08-18T20:59:39.615Z,21.10
2018-08-18T21:01:11.186Z,20.70
2018-08-18T21:02:42.764Z,20.80
2018-08-18T21:04:14.429Z,22.70
2018-08-18T21:05:45.900Z,22.20
2018-08-18T21:07:17.471Z,22.10
2018-08-18T21:08:49.046Z,22.70
2018-08-18T21:10:20.814Z,23.90
2018-08-18T21:11:52.186Z,25.30
2018-08-18T21:13:23.793Z,24.20
2018-08-18T21:14:55.328Z,26.80
2018-08-18T21:16:27.000Z,25.50